< < Back
Terminal Aerodrome Forecast


Current Version              Previous Versions:   1  2  3  4  5  6  7  8  9  

Terminal Aerodrome Forecast

979
FTUS42 KTAE 020500
TAFDHN
TAF
KDHN 020520Z 0206/0306 00000KT P6SM SKC
     FM020900 00000KT 4SM BR SCT003
     FM021400 13005KT P6SM SCT050 BKN250=

Latest METAR

424
SAUS70 KWBC 020600 RRF
MTRDHN
METAR KDHN 020553Z AUTO 13004KT 10SM CLR 20/19 A3004 RMK AO2 SLP167
T02000189 10239 20194 402940161 58002


USA.gov is the U.S. government's official web portal to all federal, state and local government web resources and services.